createdAt,value
2018-05-11T00:00:31.801Z,6.80
2018-05-11T00:02:59.369Z,7.17
2018-05-11T00:05:26.905Z,7.20
2018-05-11T00:07:54.479Z,7.40
2018-05-11T00:10:22.029Z,6.73
2018-05-11T00:12:49.605Z,6.90
2018-05-11T00:15:17.151Z,7.40
2018-05-11T00:17:44.736Z,7.27
2018-05-11T00:20:12.279Z,6.33
2018-05-11T00:22:39.845Z,6.90
2018-05-11T00:25:07.409Z,7.60
2018-05-11T00:27:34.979Z,7.20
2018-05-11T00:30:02.525Z,7.97
2018-05-11T00:32:30.091Z,7.57
2018-05-11T00:34:57.640Z,7.77
2018-05-11T00:37:25.223Z,8.67
2018-05-11T00:39:52.764Z,8.10
2018-05-11T00:42:20.331Z,7.93
2018-05-11T00:44:47.875Z,7.30
2018-05-11T00:47:15.439Z,7.70
2018-05-11T00:49:42.988Z,8.97
2018-05-11T00:52:10.569Z,7.10
2018-05-11T00:54:38.111Z,7.90
2018-05-11T00:57:05.667Z,8.10
2018-05-11T00:59:33.208Z,7.37
2018-05-11T01:02:00.810Z,7.90
2018-05-11T01:04:28.371Z,8.30
2018-05-11T01:06:55.940Z,8.30
2018-05-11T01:09:23.495Z,8.13
2018-05-11T01:11:51.052Z,8.10
2018-05-11T01:14:18.619Z,8.70
2018-05-11T01:16:46.176Z,9.70
2018-05-11T01:19:13.746Z,8.40
2018-05-11T01:21:41.285Z,11.20
2018-05-11T01:24:08.862Z,11.20
2018-05-11T01:26:36.419Z,10.97
2018-05-11T01:29:04.003Z,11.50
2018-05-11T01:31:31.567Z,11.47
2018-05-11T01:33:59.153Z,11.70
2018-05-11T01:36:26.689Z,9.33
2018-05-11T01:38:54.276Z,9.40
2018-05-11T01:41:21.829Z,8.87
2018-05-11T01:43:49.401Z,8.83
2018-05-11T01:46:16.945Z,8.80
2018-05-11T01:48:44.518Z,8.17
2018-05-11T01:51:12.138Z,9.10
2018-05-11T01:53:39.653Z,9.37
2018-05-11T01:56:07.208Z,9.57
2018-05-11T01:58:34.774Z,9.10
2018-05-11T02:01:02.323Z,10.67
2018-05-11T02:03:29.893Z,10.17
2018-05-11T02:05:57.425Z,10.57
2018-05-11T02:08:24.991Z,10.10
2018-05-11T02:10:52.545Z,9.27
2018-05-11T02:13:20.121Z,9.20
2018-05-11T02:15:47.660Z,9.70
2018-05-11T02:18:15.223Z,10.00
2018-05-11T02:20:42.761Z,8.80
2018-05-11T02:23:10.318Z,8.87
2018-05-11T02:25:37.859Z,8.40
2018-05-11T02:28:06.191Z,9.40
2018-05-11T02:30:33.729Z,10.57
2018-05-11T02:33:01.296Z,10.00
2018-05-11T02:35:28.841Z,9.60
2018-05-11T02:37:56.391Z,9.10
2018-05-11T02:40:23.976Z,9.33
2018-05-11T02:42:51.519Z,9.80
2018-05-11T02:45:19.088Z,9.23
2018-05-11T02:47:46.649Z,10.10
2018-05-11T02:50:14.229Z,9.80
2018-05-11T02:52:41.765Z,8.80
2018-05-11T02:55:09.335Z,10.50
2018-05-11T02:57:36.886Z,9.43
2018-05-11T03:00:04.444Z,9.50
2018-05-11T03:02:31.995Z,9.57
2018-05-11T03:04:59.584Z,9.90
2018-05-11T03:07:27.141Z,8.40
2018-05-11T03:09:54.703Z,8.50
2018-05-11T03:12:22.268Z,10.63
2018-05-11T03:14:50.598Z,9.23
2018-05-11T03:17:18.144Z,8.90
2018-05-11T03:19:46.479Z,9.43
2018-05-11T03:22:14.029Z,10.40
2018-05-11T03:24:41.585Z,9.70
2018-05-11T03:27:09.128Z,8.73
2018-05-11T03:29:36.681Z,8.87
2018-05-11T03:32:04.224Z,9.20
2018-05-11T03:34:32.567Z,8.87
2018-05-11T03:37:00.111Z,8.67
2018-05-11T03:39:27.662Z,9.60
2018-05-11T03:41:55.200Z,9.47
2018-05-11T03:44:22.780Z,8.43
2018-05-11T03:46:50.333Z,8.50
2018-05-11T03:49:17.894Z,8.60
2018-05-11T03:51:45.429Z,9.00
2018-05-11T03:54:12.996Z,9.37
2018-05-11T03:56:40.542Z,9.40
2018-05-11T03:59:08.852Z,8.50
2018-05-11T04:01:48.335Z,8.80
2018-05-11T04:04:28.486Z,8.83
2018-05-11T04:07:08.798Z,9.00
2018-05-11T04:09:36.368Z,9.47
2018-05-11T04:12:03.913Z,10.37
2018-05-11T04:14:31.483Z,8.83
2018-05-11T04:16:59.024Z,9.87
2018-05-11T04:19:26.563Z,9.10
2018-05-11T04:21:54.894Z,9.70
2018-05-11T04:24:22.445Z,10.23
2018-05-11T04:26:50.009Z,9.70
2018-05-11T04:29:17.555Z,8.50
2018-05-11T04:31:45.112Z,9.10
2018-05-11T04:34:12.655Z,9.90
2018-05-11T04:36:40.214Z,8.87
2018-05-11T04:39:07.758Z,9.83
2018-05-11T04:41:36.096Z,8.93
2018-05-11T04:44:03.650Z,9.13
2018-05-11T04:46:31.208Z,8.73
2018-05-11T04:48:58.742Z,9.40
2018-05-11T04:51:26.314Z,9.20
2018-05-11T04:53:53.850Z,8.77
2018-05-11T04:56:21.422Z,8.90
2018-05-11T04:58:48.967Z,9.10
2018-05-11T05:01:16.542Z,9.07
2018-05-11T05:03:44.090Z,9.30
2018-05-11T05:06:11.664Z,8.67
2018-05-11T05:08:39.218Z,8.07
2018-05-11T05:11:06.787Z,8.10
2018-05-11T05:13:34.395Z,8.33
2018-05-11T05:16:01.994Z,8.47
2018-05-11T05:18:30.322Z,8.67
2018-05-11T05:20:57.895Z,9.13
2018-05-11T05:23:27.242Z,9.60
2018-05-11T05:25:54.816Z,8.63
2018-05-11T05:28:22.349Z,8.67
2018-05-11T05:30:49.916Z,9.97
2018-05-11T05:33:17.464Z,10.00
2018-05-11T05:35:45.043Z,10.43
2018-05-11T05:38:12.597Z,11.10
2018-05-11T05:40:40.179Z,10.10
2018-05-11T05:43:08.503Z,10.20
2018-05-11T05:45:36.835Z,11.10
2018-05-11T05:48:04.381Z,9.83
2018-05-11T05:50:31.967Z,10.13
2018-05-11T05:52:59.515Z,9.77
2018-05-11T05:55:27.069Z,9.93
2018-05-11T05:57:54.631Z,9.57
2018-05-11T06:00:22.186Z,11.40
2018-05-11T06:02:49.755Z,10.23
2018-05-11T06:05:17.306Z,9.57
2018-05-11T06:07:45.638Z,10.20
2018-05-11T06:10:13.954Z,10.10
2018-05-11T06:12:41.532Z,11.03
2018-05-11T06:15:09.095Z,9.40
2018-05-11T06:17:36.731Z,9.90
2018-05-11T06:20:04.257Z,9.70
2018-05-11T06:22:32.586Z,10.10
2018-05-11T06:25:00.146Z,9.90
2018-05-11T06:27:27.721Z,10.07
2018-05-11T06:29:56.236Z,9.67
2018-05-11T06:32:24.567Z,9.83
2018-05-11T06:34:52.129Z,9.00
2018-05-11T06:37:19.713Z,9.37
2018-05-11T06:39:48.019Z,9.23
2018-05-11T06:42:15.593Z,8.53
2018-05-11T06:44:43.142Z,9.17
2018-05-11T06:47:10.719Z,9.90
2018-05-11T06:49:38.266Z,9.17
2018-05-11T06:52:05.839Z,9.30
2018-05-11T06:54:33.548Z,9.13
2018-05-11T06:57:01.160Z,7.97
2018-05-11T06:59:28.706Z,8.43
2018-05-11T07:01:56.272Z,9.50
2018-05-11T07:04:23.813Z,8.10
2018-05-11T07:06:51.386Z,7.80
2018-05-11T07:09:18.921Z,10.07
2018-05-11T07:11:47.263Z,8.60
2018-05-11T07:14:14.798Z,9.00
2018-05-11T07:16:42.362Z,9.07
2018-05-11T07:19:09.920Z,7.80
2018-05-11T07:21:37.499Z,9.13
2018-05-11T07:24:05.040Z,9.47
2018-05-11T07:26:32.586Z,8.27
2018-05-11T07:29:00.168Z,8.87
2018-05-11T07:31:27.715Z,8.33
2018-05-11T07:33:55.273Z,8.57
2018-05-11T07:36:22.824Z,9.23
2018-05-11T07:38:50.408Z,9.93
2018-05-11T07:41:18.779Z,10.77
2018-05-11T07:43:47.062Z,10.37
2018-05-11T07:46:14.608Z,11.30
2018-05-11T07:48:42.265Z,11.50
2018-05-11T07:51:09.822Z,11.13
2018-05-11T07:53:37.400Z,12.00
2018-05-11T07:56:04.947Z,11.90
2018-05-11T07:58:32.519Z,13.43
2018-05-11T08:01:00.060Z,14.30
2018-05-11T08:03:27.631Z,14.10
2018-05-11T08:05:55.188Z,14.00
2018-05-11T08:08:22.759Z,15.47
2018-05-11T08:10:50.302Z,16.83
2018-05-11T08:13:17.880Z,16.17
2018-05-11T08:15:45.426Z,17.40
2018-05-11T08:18:13.003Z,19.10
2018-05-11T08:20:40.555Z,19.30
2018-05-11T08:23:08.145Z,18.43
2018-05-11T08:25:35.695Z,19.90
2018-05-11T08:28:03.273Z,19.80
2018-05-11T08:30:31.578Z,19.57
2018-05-11T08:32:59.154Z,20.40
2018-05-11T08:35:26.717Z,19.97
2018-05-11T08:37:54.277Z,20.60
2018-05-11T08:40:21.834Z,21.27
2018-05-11T08:42:49.404Z,21.70
2018-05-11T08:45:16.972Z,19.57
2018-05-11T08:47:44.546Z,20.60
2018-05-11T08:50:12.177Z,19.97
2018-05-11T08:52:39.756Z,20.20
2018-05-11T08:55:07.317Z,18.20
2018-05-11T08:57:34.891Z,18.20
2018-05-11T09:00:02.458Z,17.43
2018-05-11T09:02:30.017Z,17.77
2018-05-11T09:04:57.585Z,16.20
2018-05-11T09:07:25.134Z,16.30
2018-05-11T09:09:52.709Z,15.73
2018-05-11T09:12:21.028Z,14.90
2018-05-11T09:14:48.696Z,14.20
2018-05-11T09:17:16.242Z,15.03
2018-05-11T09:19:43.799Z,15.17
2018-05-11T09:22:11.345Z,14.77
2018-05-11T09:24:38.924Z,16.30
2018-05-11T09:27:06.459Z,15.97
2018-05-11T09:29:34.794Z,17.03
2018-05-11T09:32:02.343Z,16.20
2018-05-11T09:34:29.912Z,16.40
2018-05-11T09:36:57.455Z,14.97
2018-05-11T09:39:25.044Z,15.33
2018-05-11T09:41:53.207Z,17.00
2018-05-11T09:44:21.147Z,14.83
2018-05-11T09:46:48.696Z,17.23
2018-05-11T09:49:16.287Z,13.73
2018-05-11T09:51:43.847Z,15.27
2018-05-11T09:54:11.419Z,13.97
2018-05-11T09:56:38.972Z,16.60
2018-05-11T09:59:06.556Z,15.97
2018-05-11T10:01:34.881Z,18.37
2018-05-11T10:04:02.451Z,16.90
2018-05-11T10:06:30.011Z,17.17
2018-05-11T10:08:57.583Z,17.93
2018-05-11T10:11:25.142Z,16.27
2018-05-11T10:13:52.788Z,16.03
2018-05-11T10:16:21.065Z,15.67
2018-05-11T10:18:48.646Z,17.17
2018-05-11T10:21:17.704Z,16.47
2018-05-11T10:23:45.291Z,16.50
2018-05-11T10:26:12.851Z,16.47
2018-05-11T10:28:40.433Z,16.43
2018-05-11T10:31:08.000Z,15.33
2018-05-11T10:33:35.546Z,17.90
2018-05-11T10:36:03.141Z,14.40
2018-05-11T10:38:31.453Z,14.73
2018-05-11T10:40:59.027Z,15.37
2018-05-11T10:43:26.571Z,15.87
2018-05-11T10:45:54.147Z,15.70
2018-05-11T10:48:21.703Z,16.80
2018-05-11T10:50:49.261Z,15.73
2018-05-11T10:53:16.832Z,15.27
2018-05-11T10:55:44.403Z,15.43
2018-05-11T10:58:11.966Z,17.40
2018-05-11T11:00:39.543Z,16.47
2018-05-11T11:03:07.867Z,14.93
2018-05-11T11:05:35.447Z,14.87
2018-05-11T11:08:03.770Z,17.60
2018-05-11T11:10:31.357Z,16.53
2018-05-11T11:12:58.920Z,15.60
2018-05-11T11:15:26.482Z,15.20
2018-05-11T11:17:54.021Z,17.20
2018-05-11T11:20:21.586Z,17.07
2018-05-11T11:22:49.133Z,16.07
2018-05-11T11:25:17.473Z,14.60
2018-05-11T11:27:45.029Z,14.80
2018-05-11T11:30:12.611Z,15.00
2018-05-11T11:32:40.974Z,15.60
2018-05-11T11:35:08.560Z,15.10
2018-05-11T11:37:36.867Z,14.90
2018-05-11T11:40:04.445Z,12.80
2018-05-11T11:42:31.993Z,14.43
2018-05-11T11:44:59.571Z,15.90
2018-05-11T11:47:27.157Z,14.70
2018-05-11T11:49:54.731Z,16.10
2018-05-11T11:52:23.064Z,14.57
2018-05-11T11:54:50.630Z,13.60
2018-05-11T11:57:18.955Z,13.40
2018-05-11T11:59:47.300Z,14.37
2018-05-11T12:02:14.852Z,14.60
2018-05-11T12:04:42.455Z,14.47
2018-05-11T12:07:10.765Z,13.53
2018-05-11T12:09:38.325Z,14.13
2018-05-11T12:12:05.895Z,13.80
2018-05-11T12:14:33.446Z,13.90
2018-05-11T12:17:01.028Z,14.70
2018-05-11T12:19:28.562Z,18.20
2018-05-11T12:21:56.130Z,15.40
2018-05-11T12:24:23.676Z,14.40
2018-05-11T12:26:51.243Z,14.03
2018-05-11T12:29:18.815Z,12.70
2018-05-11T12:31:46.379Z,14.83
2018-05-11T12:34:14.704Z,12.30
2018-05-11T12:36:43.048Z,15.00
2018-05-11T12:39:10.598Z,13.23
2018-05-11T12:41:38.170Z,14.20
2018-05-11T12:44:05.724Z,15.73
2018-05-11T12:46:33.320Z,18.03
2018-05-11T12:49:01.627Z,14.43
2018-05-11T12:51:29.199Z,14.10
2018-05-11T12:53:56.752Z,15.17
2018-05-11T12:56:24.595Z,15.43
2018-05-11T12:58:52.189Z,15.67
2018-05-11T13:01:19.757Z,14.50
2018-05-11T13:03:48.078Z,14.33
2018-05-11T13:06:16.411Z,14.10
2018-05-11T13:08:44.726Z,14.03
2018-05-11T13:11:13.075Z,15.63
2018-05-11T13:13:40.627Z,14.83
2018-05-11T13:16:08.207Z,15.97
2018-05-11T13:18:35.749Z,15.33
2018-05-11T13:21:03.313Z,14.97
2018-05-11T13:23:30.867Z,12.60
2018-05-11T13:25:58.438Z,14.67
2018-05-11T13:28:25.995Z,12.77
2018-05-11T13:30:53.566Z,14.23
2018-05-11T13:33:21.122Z,14.00
2018-05-11T13:35:48.711Z,13.83
2018-05-11T13:38:17.036Z,13.23
2018-05-11T13:40:44.579Z,12.67
2018-05-11T13:43:12.158Z,12.50
2018-05-11T13:45:39.714Z,13.97
2018-05-11T13:48:07.287Z,12.93
2018-05-11T13:50:34.872Z,13.43
2018-05-11T13:53:03.216Z,13.50
2018-05-11T13:55:31.531Z,12.27
2018-05-11T13:57:59.871Z,11.60
2018-05-11T14:00:27.405Z,11.27
2018-05-11T14:02:54.966Z,12.83
2018-05-11T14:05:22.502Z,13.07
2018-05-11T14:07:50.066Z,11.40
2018-05-11T14:10:17.616Z,11.17
2018-05-11T14:12:45.211Z,14.27
2018-05-11T14:15:12.751Z,14.00
2018-05-11T14:17:40.316Z,11.77
2018-05-11T14:20:07.872Z,11.83
2018-05-11T14:22:35.446Z,16.07
2018-05-11T14:25:03.087Z,13.57
2018-05-11T14:27:30.579Z,13.77
2018-05-11T14:29:58.119Z,12.33
2018-05-11T14:32:25.703Z,11.60
2018-05-11T14:34:53.252Z,12.30
2018-05-11T14:37:20.810Z,12.20
2018-05-11T14:39:48.383Z,11.63
2018-05-11T14:42:16.723Z,13.03
2018-05-11T14:44:44.286Z,11.53
2018-05-11T14:47:11.873Z,12.70
2018-05-11T14:49:40.413Z,12.97
2018-05-11T14:52:07.928Z,10.93
2018-05-11T14:54:35.478Z,12.13
2018-05-11T14:57:03.816Z,11.40
2018-05-11T14:59:31.377Z,11.20
2018-05-11T15:01:58.958Z,14.13
2018-05-11T15:04:26.502Z,11.10
2018-05-11T15:06:54.059Z,11.60
2018-05-11T15:09:21.642Z,12.13
2018-05-11T15:11:49.196Z,12.10
2018-05-11T15:14:16.772Z,12.30
2018-05-11T15:16:45.100Z,11.67
2018-05-11T15:19:13.429Z,12.27
2018-05-11T15:21:41.745Z,11.20
2018-05-11T15:24:10.084Z,12.27
2018-05-11T15:26:38.413Z,11.53
2018-05-11T15:29:06.746Z,12.87
2018-05-11T15:31:34.298Z,11.33
2018-05-11T15:34:01.874Z,10.10
2018-05-11T15:36:29.422Z,11.03
2018-05-11T15:38:57.753Z,10.77
2018-05-11T15:41:25.300Z,11.33
2018-05-11T15:43:53.649Z,14.17
2018-05-11T15:46:21.205Z,12.73
2018-05-11T15:48:48.779Z,11.67
2018-05-11T15:51:16.318Z,12.97
2018-05-11T15:53:43.896Z,12.70
2018-05-11T15:56:11.439Z,10.63
2018-05-11T15:58:39.789Z,12.07
2018-05-11T16:01:07.334Z,10.97
2018-05-11T16:03:34.916Z,10.60
2018-05-11T16:06:02.464Z,9.50
2018-05-11T16:08:30.031Z,11.40
2018-05-11T16:10:57.580Z,9.57
2018-05-11T16:13:25.144Z,12.60
2018-05-11T16:15:52.692Z,10.90
2018-05-11T16:18:20.264Z,10.20
2018-05-11T16:20:47.811Z,11.90
2018-05-11T16:23:15.381Z,11.40
2018-05-11T16:25:42.927Z,12.63
2018-05-11T16:28:10.560Z,13.90
2018-05-11T16:30:38.045Z,12.23
2018-05-11T16:33:05.611Z,13.70
2018-05-11T16:35:33.145Z,13.40
2018-05-11T16:38:01.485Z,12.90
2018-05-11T16:40:29.140Z,12.57
2018-05-11T16:42:56.619Z,12.67
2018-05-11T16:45:24.162Z,13.00
2018-05-11T16:47:51.718Z,12.43
2018-05-11T16:50:19.288Z,13.03
2018-05-11T16:52:46.834Z,11.97
2018-05-11T16:55:14.408Z,11.40
2018-05-11T16:57:41.955Z,12.73
2018-05-11T17:00:10.292Z,13.83
2018-05-11T17:02:37.849Z,10.93
2018-05-11T17:05:05.426Z,11.73
2018-05-11T17:07:32.983Z,12.83
2018-05-11T17:10:00.568Z,10.77
2018-05-11T17:12:28.114Z,12.47
2018-05-11T17:14:55.696Z,11.13
2018-05-11T17:17:23.251Z,12.37
2018-05-11T17:19:50.823Z,11.03
2018-05-11T17:22:18.376Z,10.67
2018-05-11T17:24:45.955Z,11.30
2018-05-11T17:27:13.500Z,10.53
2018-05-11T17:29:41.071Z,11.83
2018-05-11T17:32:08.618Z,10.87
2018-05-11T17:34:36.183Z,12.43
2018-05-11T17:37:03.731Z,12.40
2018-05-11T17:39:31.310Z,10.90
2018-05-11T17:41:58.854Z,11.57
2018-05-11T17:44:26.419Z,10.90
2018-05-11T17:46:53.972Z,12.20
2018-05-11T17:49:21.575Z,12.60
2018-05-11T17:51:49.892Z,13.10
2018-05-11T17:54:17.458Z,11.50
2018-05-11T17:56:44.996Z,10.60
2018-05-11T17:59:12.560Z,11.60
2018-05-11T18:01:40.110Z,11.13
2018-05-11T18:04:07.676Z,10.87
2018-05-11T18:06:35.235Z,11.17
2018-05-11T18:09:02.846Z,10.80
2018-05-11T18:11:30.411Z,11.60
2018-05-11T18:13:57.955Z,11.17
2018-05-11T18:16:25.531Z,12.43
2018-05-11T18:18:53.071Z,10.33
2018-05-11T18:21:20.634Z,11.83
2018-05-11T18:23:48.180Z,13.40
2018-05-11T18:26:15.745Z,13.07
2018-05-11T18:28:43.282Z,12.77
2018-05-11T18:31:10.860Z,13.00
2018-05-11T18:33:38.410Z,12.63
2018-05-11T18:36:05.995Z,13.67
2018-05-11T18:38:33.538Z,14.30
2018-05-11T18:41:02.043Z,14.47
2018-05-11T18:43:29.591Z,14.73
2018-05-11T18:45:57.158Z,13.53
2018-05-11T18:48:24.707Z,13.93
2018-05-11T18:50:52.284Z,12.53
2018-05-11T18:53:20.170Z,13.60
2018-05-11T18:55:47.398Z,14.47
2018-05-11T18:58:14.931Z,16.33
2018-05-11T19:00:42.493Z,14.20
2018-05-11T19:03:10.040Z,14.77
2018-05-11T19:05:37.610Z,15.10
2018-05-11T19:08:05.154Z,15.97
2018-05-11T19:10:32.749Z,14.33
2018-05-11T19:13:00.295Z,14.80
2018-05-11T19:15:27.857Z,14.83
2018-05-11T19:17:55.409Z,16.10
2018-05-11T19:20:22.987Z,14.57
2018-05-11T19:22:50.535Z,15.77
2018-05-11T19:25:18.108Z,15.47
2018-05-11T19:27:45.655Z,14.27
2018-05-11T19:30:13.997Z,15.17
2018-05-11T19:32:41.549Z,16.80
2018-05-11T19:35:09.126Z,13.40
2018-05-11T19:37:36.665Z,14.50
2018-05-11T19:40:04.211Z,15.03
2018-05-11T19:42:32.557Z,15.43
2018-05-11T19:45:00.098Z,15.97
2018-05-11T19:47:27.650Z,16.00
2018-05-11T19:49:55.194Z,17.40
2018-05-11T19:52:22.768Z,16.10
2018-05-11T19:54:50.317Z,17.37
2018-05-11T19:57:17.920Z,16.10
2018-05-11T19:59:45.470Z,16.50
2018-05-11T20:02:13.039Z,17.83
2018-05-11T20:04:40.669Z,17.20
2018-05-11T20:07:08.951Z,20.43
2018-05-11T20:09:36.525Z,18.07
2018-05-11T20:12:04.876Z,18.13
2018-05-11T20:14:32.431Z,18.23
2018-05-11T20:17:00.003Z,18.73
2018-05-11T20:19:27.554Z,19.03
2018-05-11T20:21:55.119Z,17.80
2018-05-11T20:24:22.659Z,18.17
2018-05-11T20:26:50.237Z,17.97
2018-05-11T20:29:17.786Z,18.00
2018-05-11T20:31:45.358Z,17.90
2018-05-11T20:34:12.902Z,18.97
2018-05-11T20:36:40.465Z,19.77
2018-05-11T20:39:08.002Z,19.60
2018-05-11T20:41:35.616Z,20.57
2018-05-11T20:44:03.149Z,19.20
2018-05-11T20:46:30.723Z,19.40
2018-05-11T20:48:58.274Z,20.70
2018-05-11T20:51:25.828Z,19.13
2018-05-11T20:53:53.406Z,20.00
2018-05-11T20:56:20.954Z,19.37
2018-05-11T20:58:48.524Z,17.77
2018-05-11T21:01:16.846Z,20.30
2018-05-11T21:03:45.178Z,19.73
2018-05-11T21:06:12.728Z,19.70
2018-05-11T21:11:14.155Z,20.63
2018-05-11T21:13:42.485Z,21.30
2018-05-11T21:16:10.802Z,19.50
2018-05-11T21:18:39.146Z,21.33
2018-05-11T21:21:07.462Z,22.30
2018-05-11T21:23:35.805Z,22.10
2018-05-11T21:26:03.373Z,20.93
2018-05-11T21:28:30.943Z,20.97
2018-05-11T21:30:58.486Z,21.60
2018-05-11T21:33:26.087Z,19.93
2018-05-11T21:35:53.700Z,20.90
2018-05-11T21:38:21.280Z,22.40
2018-05-11T21:40:48.918Z,21.20
2018-05-11T21:43:17.191Z,23.70
2018-05-11T21:45:44.739Z,23.23
2018-05-11T21:48:12.311Z,23.43
2018-05-11T21:50:39.880Z,23.20
2018-05-11T21:53:07.454Z,23.27
2018-05-11T21:55:35.019Z,23.67
2018-05-11T21:58:03.355Z,23.27
2018-05-11T22:00:30.911Z,23.97
2018-05-11T22:02:58.486Z,25.70
2018-05-11T22:05:26.036Z,23.70
2018-05-11T22:07:53.607Z,23.40
2018-05-11T22:10:21.152Z,23.20
2018-05-11T22:12:48.723Z,23.80
2018-05-11T22:15:16.330Z,25.70
2018-05-11T22:17:44.665Z,24.50
2018-05-11T22:20:12.223Z,26.53
2018-05-11T22:22:40.546Z,27.20
2018-05-11T22:25:08.884Z,27.37
2018-05-11T22:27:37.195Z,26.87
2018-05-11T22:30:05.531Z,26.60
2018-05-11T22:32:33.075Z,26.23
2018-05-11T22:35:00.646Z,26.77
2018-05-11T22:37:29.022Z,26.60
2018-05-11T22:39:56.555Z,26.70
2018-05-11T22:42:24.111Z,27.60
2018-05-11T22:44:51.689Z,25.90
2018-05-11T22:47:19.235Z,28.00
2018-05-11T22:49:46.818Z,27.63
2018-05-11T22:52:14.367Z,28.10
2018-05-11T22:54:41.929Z,28.57
2018-05-11T22:57:09.481Z,28.27
2018-05-11T22:59:37.046Z,29.60
2018-05-11T23:02:04.608Z,29.30
2018-05-11T23:04:32.203Z,32.40
2018-05-11T23:06:59.753Z,32.20
2018-05-11T23:09:27.314Z,30.70
2018-05-11T23:11:54.849Z,31.70
2018-05-11T23:14:22.419Z,32.87
2018-05-11T23:16:49.965Z,30.13
2018-05-11T23:19:17.530Z,31.90
2018-05-11T23:21:45.067Z,29.70
2018-05-11T23:24:12.640Z,31.07
2018-05-11T23:26:40.191Z,32.03
2018-05-11T23:29:07.756Z,31.43
2018-05-11T23:31:35.307Z,28.87
2018-05-11T23:34:02.880Z,31.07
2018-05-11T23:36:30.433Z,32.33
2018-05-11T23:38:58.017Z,32.33
2018-05-11T23:41:26.338Z,31.80
2018-05-11T23:43:54.680Z,34.20
2018-05-11T23:46:22.213Z,31.70
2018-05-11T23:48:49.786Z,32.07
2018-05-11T23:51:17.322Z,31.57
2018-05-11T23:53:44.882Z,32.50
2018-05-11T23:56:12.434Z,33.97
2018-05-11T23:58:39.990Z,33.17
